Impacts METAR Board INFO
IDs:

KBOS - Boston/Logan Intl, MA, US

Updated at: 1255 UTC 20 Jan 2018
Potential Impact None Slight Moderate High
Time20/00Z 20/01Z 20/02Z 20/03Z 20/04Z 20/05Z 20/06Z 20/07Z 20/08Z 20/09Z 20/10Z 20/11Z 20/12Z
VIS10 10 10 10 10 10 10 10 10 10 10 10 10
CIG37 40 39 220 220 -- -- 220 180 180 180 150 150
CoverOVCOVCOVCBKNBKNCLRFEWBKNOVCBKNBKNBKNBKN
FltCatVFRVFRVFRVFRVFRVFRVFRVFRVFRVFRVFRVFRVFR
WX--------------------------
WDir0270230220230210200220210210220220220
WSpd0 10 9 10 9 11 9 11 10 10 10 15 14
WGst-- -- -- -- -- -- -- -- -- -- -- -- --
Raw hourly METARs
KBOS 192354Z 00000KT 10SM FEW023 BKN037 OVC200 01/M06 A2993 RMK AO2 SLP133 T00061061 10011 20000 58003
KBOS 200054Z 27010KT 10SM FEW027 OVC040 01/M06 A2995 RMK AO2 SLP141 T00061061
KBOS 200154Z 23009KT 10SM FEW027 OVC039 00/M06 A2995 RMK AO2 SLP141 T00001061
KBOS 200254Z 22010KT 10SM FEW030 BKN220 M01/M07 A2993 RMK AO2 SLP134 T10061067 50001
KBOS 200354Z 23009KT 10SM FEW030 BKN220 M01/M07 A2992 RMK AO2 SLP131 T10111067
KBOS 200454Z 21011KT 10SM CLR M01/M07 A2989 RMK AO2 SLP120 T10111072 400111050
KBOS 200554Z 20009KT 10SM FEW220 M01/M07 A2984 RMK AO2 PRESFR SLP104 T10111072 10011 21017 58030
KBOS 200654Z 22011KT 10SM SCT120 BKN220 00/M07 A2982 RMK AO2 SLP097 T00001067
KBOS 200754Z 21010KT 10SM SCT120 OVC180 00/M07 A2981 RMK AO2 SLP094 T00001067
KBOS 200854Z COR 21010KT 10SM BKN180 00/M06 A2980 RMK AO2 SLP090 T00001061 56015
KBOS 200954Z 22010KT 10SM FEW120 BKN180 00/M06 A2976 RMK AO2 SLP076 T00001061
KBOS 201054Z 22015KT 10SM FEW120 BKN150 01/M06 A2971 RMK AO2 SLP060 T00111056
KBOS 201154Z 22014KT 10SM FEW120 BKN150 01/M05 A2970 RMK AO2 SLP057 T00111050 10011 21011 56033